createdAt,value
2023-04-22T00:02:10.336Z,100145.47
2023-04-22T00:05:15.917Z,100135.66
2023-04-22T00:08:21.056Z,100142.13
2023-04-22T00:11:23.904Z,100145.03
2023-04-22T00:14:26.573Z,100133.69
2023-04-22T00:17:29.448Z,100134.28
2023-04-22T00:20:33.174Z,100133.97
2023-04-22T00:23:36.194Z,100138.31
2023-04-22T00:26:38.844Z,100138.41
2023-04-22T00:29:41.721Z,100132.75
2023-04-22T00:32:44.450Z,100138.63
2023-04-22T00:35:47.324Z,100136.69
2023-04-22T00:38:53.432Z,100131.63
2023-04-22T00:41:56.582Z,100133.28
2023-04-22T00:44:59.452Z,100129.22
2023-04-22T00:48:02.912Z,100137.34
2023-04-22T00:51:06.202Z,100137.09
2023-04-22T00:54:09.113Z,100138.75
2023-04-22T00:57:12.358Z,100139.38
2023-04-22T01:00:15.471Z,100140.56
2023-04-22T01:03:20.871Z,100133.19
2023-04-22T01:06:24.671Z,100147.22
2023-04-22T01:09:27.607Z,100151.53
2023-04-22T01:12:30.522Z,100145.09
2023-04-22T01:15:33.199Z,100153.00
2023-04-22T01:18:36.927Z,100152.25
2023-04-22T01:21:41.010Z,100161.53
2023-04-22T01:24:44.154Z,100161.97
2023-04-22T01:27:47.011Z,100163.59
2023-04-22T01:30:50.699Z,100166.59
2023-04-22T01:33:53.355Z,100166.94
2023-04-22T01:36:56.304Z,100157.62
2023-04-22T01:39:59.382Z,100164.09
2023-04-22T01:43:03.027Z,100166.00
2023-04-22T01:46:06.929Z,100167.38
2023-04-22T01:49:09.900Z,100154.78
2023-04-22T01:52:12.770Z,100161.41
2023-04-22T01:55:15.889Z,100165.59
2023-04-22T01:58:18.982Z,100159.75
2023-04-22T02:01:22.224Z,100154.12
2023-04-22T02:04:25.563Z,100161.16
2023-04-22T02:07:28.156Z,100159.25
2023-04-22T02:10:31.460Z,100154.97
2023-04-22T02:13:37.847Z,100150.94
2023-04-22T02:16:44.379Z,100145.59
2023-04-22T02:19:47.489Z,100157.53
2023-04-22T02:22:50.932Z,100149.75
2023-04-22T02:25:56.108Z,100149.69
2023-04-22T02:28:58.772Z,100148.00
2023-04-22T02:32:02.733Z,100141.31
2023-04-22T02:35:06.050Z,100144.63
2023-04-22T02:38:09.033Z,100140.28
2023-04-22T02:41:11.970Z,100144.41
2023-04-22T02:44:14.962Z,100140.38
2023-04-22T02:47:17.718Z,100134.41
2023-04-22T02:50:21.036Z,100136.81
2023-04-22T02:53:23.653Z,100137.88
2023-04-22T02:56:27.512Z,100142.97
2023-04-22T02:59:32.149Z,100135.75
2023-04-22T03:02:35.485Z,100132.72
2023-04-22T03:05:40.719Z,100134.50
2023-04-22T03:08:44.261Z,100140.28
2023-04-22T03:11:46.856Z,100146.25
2023-04-22T03:14:50.468Z,100139.03
2023-04-22T03:17:53.380Z,100137.28
2023-04-22T03:20:56.660Z,100139.00
2023-04-22T03:24:00.475Z,100137.47
2023-04-22T03:27:05.555Z,100141.16
2023-04-22T03:30:08.601Z,100137.47
2023-04-22T03:33:12.049Z,100148.31
2023-04-22T03:36:15.194Z,100141.22
2023-04-22T03:39:18.640Z,100143.09
2023-04-22T03:42:21.686Z,100149.09
2023-04-22T03:45:24.657Z,100151.56
2023-04-22T03:48:30.156Z,100150.34
2023-04-22T03:51:33.230Z,100147.03
2023-04-22T03:54:36.697Z,100147.38
2023-04-22T03:57:41.122Z,100143.81
2023-04-22T04:00:45.863Z,100144.63
2023-04-22T04:03:50.141Z,100156.63
2023-04-22T04:06:53.632Z,100149.37
2023-04-22T04:09:56.769Z,100150.16
2023-04-22T04:12:59.629Z,100152.63
2023-04-22T04:16:02.636Z,100153.34
2023-04-22T04:19:07.877Z,100162.31
2023-04-22T04:22:11.439Z,100158.84
2023-04-22T04:25:15.146Z,100159.97
2023-04-22T04:28:19.910Z,100157.16
2023-04-22T04:31:24.971Z,100156.84
2023-04-22T04:34:28.530Z,100168.03
2023-04-22T04:37:31.818Z,100160.72
2023-04-22T04:40:36.213Z,100170.66
2023-04-22T04:43:40.941Z,100174.56
2023-04-22T04:46:46.821Z,100176.19
2023-04-22T04:49:50.263Z,100167.78
2023-04-22T04:52:53.304Z,100174.84
2023-04-22T04:55:57.237Z,100179.03
2023-04-22T04:59:01.011Z,100181.44
2023-04-22T05:02:04.034Z,100184.75
2023-04-22T05:05:08.138Z,100191.88
2023-04-22T05:08:12.047Z,100191.78
2023-04-22T05:11:15.819Z,100182.87
2023-04-22T05:14:19.247Z,100180.66
2023-04-22T05:17:22.546Z,100181.38
2023-04-22T05:20:25.852Z,100186.56
2023-04-22T05:23:30.221Z,100182.25
2023-04-22T05:26:34.061Z,100180.59
2023-04-22T05:29:38.571Z,100178.69
2023-04-22T05:32:42.544Z,100180.28
2023-04-22T05:35:46.391Z,100184.25
2023-04-22T05:38:49.002Z,100177.94
2023-04-22T05:41:51.911Z,100175.38
2023-04-22T05:44:54.726Z,100183.53
2023-04-22T05:48:05.062Z,100180.00
2023-04-22T05:51:12.478Z,100180.09
2023-04-22T05:54:15.897Z,100180.78
2023-04-22T05:57:19.033Z,100179.22
2023-04-22T06:00:22.208Z,100177.25
2023-04-22T06:03:26.602Z,100173.28
2023-04-22T06:06:31.876Z,100172.91
2023-04-22T06:09:34.835Z,100173.69
2023-04-22T06:12:37.897Z,100179.69
2023-04-22T06:15:41.770Z,100186.84
2023-04-22T06:18:44.445Z,100186.88
2023-04-22T06:21:47.497Z,100181.25
2023-04-22T06:24:51.837Z,100179.94
2023-04-22T06:27:54.783Z,100173.50
2023-04-22T06:30:57.680Z,100171.91
2023-04-22T06:34:01.025Z,100175.28
2023-04-22T06:37:04.522Z,100176.75
2023-04-22T06:40:08.114Z,100178.16
2023-04-22T06:43:11.733Z,100172.44
2023-04-22T06:46:15.367Z,100171.66
2023-04-22T06:49:18.412Z,100175.09
2023-04-22T06:52:24.093Z,100174.81
2023-04-22T06:55:27.677Z,100182.16
2023-04-22T06:58:31.198Z,100177.13
2023-04-22T07:01:34.257Z,100175.59
2023-04-22T07:04:37.422Z,100181.69
2023-04-22T07:07:40.769Z,100180.41
2023-04-22T07:10:44.845Z,100173.19
2023-04-22T07:13:52.673Z,100169.22
2023-04-22T07:16:55.684Z,100165.25
2023-04-22T07:19:58.455Z,100175.72
2023-04-22T07:23:01.633Z,100164.69
2023-04-22T07:26:04.261Z,100169.09
2023-04-22T07:29:07.364Z,100159.31
2023-04-22T07:32:10.054Z,100168.31
2023-04-22T07:35:13.091Z,100172.19
2023-04-22T07:38:15.808Z,100166.94
2023-04-22T07:41:18.656Z,100170.19
2023-04-22T07:44:21.877Z,100169.53
2023-04-22T07:47:25.415Z,100167.44
2023-04-22T07:50:28.052Z,100165.19
2023-04-22T07:53:31.070Z,100163.34
2023-04-22T07:56:34.598Z,100169.50
2023-04-22T07:59:37.519Z,100165.72
2023-04-22T08:02:40.392Z,100169.44
2023-04-22T08:05:43.236Z,100167.19
2023-04-22T08:08:46.583Z,100165.97
2023-04-22T08:11:49.477Z,100163.28
2023-04-22T08:14:52.091Z,100164.88
2023-04-22T08:17:55.207Z,100171.78
2023-04-22T08:20:57.855Z,100159.34
2023-04-22T08:24:00.863Z,100154.94
2023-04-22T08:27:03.500Z,100156.84
2023-04-22T08:30:07.697Z,100154.81
2023-04-22T08:33:11.340Z,100152.69
2023-04-22T08:36:14.732Z,100146.56
2023-04-22T08:39:18.382Z,100161.41
2023-04-22T08:42:23.043Z,100149.97
2023-04-22T08:45:25.669Z,100155.47
2023-04-22T08:48:28.534Z,100145.16
2023-04-22T08:51:35.603Z,100160.28
2023-04-22T08:54:38.519Z,100153.25
2023-04-22T08:57:41.847Z,100149.88
2023-04-22T09:00:45.494Z,100161.03
2023-04-22T09:03:50.215Z,100156.22
2023-04-22T09:06:53.678Z,100156.69
2023-04-22T09:09:57.424Z,100153.22
2023-04-22T09:13:01.303Z,100154.81
2023-04-22T09:16:04.342Z,100148.19
2023-04-22T09:19:11.693Z,100152.94
2023-04-22T09:22:16.302Z,100156.84
2023-04-22T09:25:21.744Z,100152.31
2023-04-22T09:28:24.376Z,100147.31
2023-04-22T09:31:28.752Z,100154.00
2023-04-22T09:34:31.574Z,100146.75
2023-04-22T09:37:46.522Z,100142.78
2023-04-22T09:40:52.014Z,100151.97
2023-04-22T09:43:59.527Z,100148.19
2023-04-22T09:47:02.291Z,100139.09
2023-04-22T09:50:05.698Z,100140.41
2023-04-22T09:53:10.373Z,100138.22
2023-04-22T09:56:13.258Z,100136.09
2023-04-22T09:59:26.790Z,100132.37
2023-04-22T10:02:30.371Z,100131.69
2023-04-22T10:05:37.880Z,100126.13
2023-04-22T10:08:40.673Z,100129.88
2023-04-22T10:11:43.642Z,100126.31
2023-04-22T10:14:46.204Z,100131.94
2023-04-22T10:17:52.407Z,100129.25
2023-04-22T10:20:57.194Z,100117.66
2023-04-22T10:24:01.266Z,100119.00
2023-04-22T10:27:06.882Z,100109.62
2023-04-22T10:30:10.942Z,100110.38
2023-04-22T10:33:27.867Z,100102.16
2023-04-22T10:36:33.348Z,100100.66
2023-04-22T10:39:36.173Z,100105.59
2023-04-22T10:42:43.306Z,100110.22
2023-04-22T10:45:45.887Z,100112.34
2023-04-22T10:48:52.428Z,100103.12
2023-04-22T10:52:00.047Z,100117.50
2023-04-22T10:55:03.356Z,100108.28
2023-04-22T10:58:19.617Z,100107.81
2023-04-22T11:01:22.688Z,100101.53
2023-04-22T11:04:25.538Z,100097.69
2023-04-22T11:07:32.122Z,100099.78
2023-04-22T11:10:44.056Z,100106.13
2023-04-22T11:13:51.046Z,100096.56
2023-04-22T11:16:54.506Z,100105.00
2023-04-22T11:20:01.943Z,100103.41
2023-04-22T11:23:04.926Z,100103.09
2023-04-22T11:26:08.025Z,100097.53
2023-04-22T11:29:10.719Z,100103.75
2023-04-22T11:32:14.446Z,100104.28
2023-04-22T11:35:20.999Z,100101.81
2023-04-22T11:38:23.988Z,100091.47
2023-04-22T11:41:28.191Z,100092.56
2023-04-22T11:44:31.353Z,100091.34
2023-04-22T11:47:35.295Z,100093.81
2023-04-22T11:50:40.428Z,100091.34
2023-04-22T11:53:51.377Z,100092.13
2023-04-22T11:56:54.829Z,100080.56
2023-04-22T11:59:59.146Z,100086.47
2023-04-22T12:03:15.721Z,100093.44
2023-04-22T12:06:19.250Z,100089.47
2023-04-22T12:09:25.934Z,100086.94
2023-04-22T12:12:29.095Z,100091.81
2023-04-22T12:15:42.743Z,100084.28
2023-04-22T12:18:52.719Z,100077.97
2023-04-22T12:21:57.184Z,100086.88
2023-04-22T12:25:01.320Z,100076.53
2023-04-22T12:28:04.063Z,100075.47
2023-04-22T12:31:07.554Z,100070.59
2023-04-22T12:34:10.309Z,100078.16
2023-04-22T12:37:13.233Z,100067.22
2023-04-22T12:40:16.059Z,100055.97
2023-04-22T12:43:19.027Z,100057.47
2023-04-22T12:46:21.798Z,100052.97
2023-04-22T12:49:25.609Z,100050.06
2023-04-22T12:52:28.234Z,100044.00
2023-04-22T12:55:31.163Z,100042.84
2023-04-22T12:58:33.957Z,100038.62
2023-04-22T13:01:36.936Z,100032.69
2023-04-22T13:04:39.556Z,100029.34
2023-04-22T13:07:42.509Z,100034.13
2023-04-22T13:10:45.018Z,100034.06
2023-04-22T13:13:47.986Z,100022.78
2023-04-22T13:16:50.838Z,100021.06
2023-04-22T13:19:53.993Z,100019.87
2023-04-22T13:22:56.724Z,100023.37
2023-04-22T13:25:59.721Z,100013.03
2023-04-22T13:29:02.872Z,100014.56
2023-04-22T13:32:06.354Z,100011.41
2023-04-22T13:35:09.665Z,100006.75
2023-04-22T13:38:12.595Z,99995.22
2023-04-22T13:41:15.278Z,100006.56
2023-04-22T13:44:18.163Z,99999.38
2023-04-22T13:47:20.959Z,99995.41
2023-04-22T13:50:24.391Z,99995.34
2023-04-22T13:53:26.882Z,99996.50
2023-04-22T13:56:29.850Z,99990.84
2023-04-22T13:59:35.121Z,99986.94
2023-04-22T14:02:38.137Z,99987.09
2023-04-22T14:05:41.012Z,100000.00
2023-04-22T14:08:43.821Z,99999.53
2023-04-22T14:11:46.547Z,99990.25
2023-04-22T14:14:49.675Z,99994.03
2023-04-22T14:17:53.918Z,99994.13
2023-04-22T14:20:57.194Z,99991.19
2023-04-22T14:24:00.041Z,99988.94
2023-04-22T14:27:02.754Z,99983.16
2023-04-22T14:30:06.759Z,99982.06
2023-04-22T14:33:10.715Z,99979.44
2023-04-22T14:36:13.557Z,99973.22
2023-04-22T14:39:16.422Z,99968.19
2023-04-22T14:42:19.760Z,99975.25
2023-04-22T14:45:24.441Z,99966.75
2023-04-22T14:48:30.933Z,99964.19
2023-04-22T14:51:35.035Z,99967.28
2023-04-22T14:54:37.981Z,99958.88
2023-04-22T14:57:40.500Z,99964.81
2023-04-22T15:00:43.848Z,99964.03
2023-04-22T15:03:46.888Z,99959.22
2023-04-22T15:06:50.025Z,99971.00
2023-04-22T15:09:53.499Z,99968.97
2023-04-22T15:12:56.941Z,99968.63
2023-04-22T15:15:59.697Z,99969.66
2023-04-22T15:19:02.714Z,99964.25
2023-04-22T15:22:05.368Z,99970.78
2023-04-22T15:25:10.658Z,99968.19
2023-04-22T15:28:14.016Z,99956.59
2023-04-22T15:31:21.566Z,99960.53
2023-04-22T15:34:24.555Z,99959.84
2023-04-22T15:37:27.469Z,99958.59
2023-04-22T15:40:30.153Z,99964.38
2023-04-22T15:43:33.226Z,99960.19
2023-04-22T15:46:35.975Z,99959.19
2023-04-22T15:49:39.575Z,99958.03
2023-04-22T15:52:42.897Z,99959.53
2023-04-22T15:55:46.914Z,99955.91
2023-04-22T15:58:52.296Z,99959.72
2023-04-22T16:01:55.571Z,99957.25
2023-04-22T16:04:59.306Z,99954.53
2023-04-22T16:08:02.071Z,99954.78
2023-04-22T16:11:06.441Z,99952.56
2023-04-22T16:14:11.008Z,99946.94
2023-04-22T16:17:15.513Z,99944.78
2023-04-22T16:20:18.321Z,99939.56
2023-04-22T16:23:21.256Z,99940.66
2023-04-22T16:26:23.741Z,99948.09
2023-04-22T16:29:27.002Z,99939.84
2023-04-22T16:32:29.632Z,99934.06
2023-04-22T16:35:32.998Z,99944.62
2023-04-22T16:38:35.822Z,99936.50
2023-04-22T16:41:38.788Z,99936.81
2023-04-22T16:44:41.431Z,99944.62
2023-04-22T16:47:44.290Z,99941.63
2023-04-22T16:50:47.181Z,99941.63
2023-04-22T16:53:50.050Z,99940.16
2023-04-22T16:56:52.626Z,99943.06
2023-04-22T16:59:55.438Z,99950.91
2023-04-22T17:02:58.134Z,99944.31
2023-04-22T17:06:01.001Z,99942.47
2023-04-22T17:09:04.353Z,99935.62
2023-04-22T17:12:07.318Z,99939.13
2023-04-22T17:15:10.363Z,99936.19
2023-04-22T17:18:14.390Z,99934.88
2023-04-22T17:21:18.353Z,99943.53
2023-04-22T17:24:22.370Z,99938.16
2023-04-22T17:27:25.184Z,99931.47
2023-04-22T17:30:28.235Z,99943.09
2023-04-22T17:33:31.502Z,99940.53
2023-04-22T17:36:34.428Z,99940.03
2023-04-22T17:39:38.817Z,99946.69
2023-04-22T17:42:46.142Z,99942.66
2023-04-22T17:45:49.414Z,99952.19
2023-04-22T17:48:52.370Z,99955.16
2023-04-22T17:51:55.375Z,99956.16
2023-04-22T17:54:59.936Z,99961.66
2023-04-22T17:58:04.106Z,99957.84
2023-04-22T18:01:08.040Z,99966.47
2023-04-22T18:04:11.088Z,99973.03
2023-04-22T18:07:13.973Z,99975.50
2023-04-22T18:10:17.040Z,99982.03
2023-04-22T18:13:19.562Z,99973.38
2023-04-22T18:16:22.498Z,99982.41
2023-04-22T18:19:25.094Z,99989.00
2023-04-22T18:22:28.372Z,99990.16
2023-04-22T18:25:31.206Z,99997.03
2023-04-22T18:28:34.285Z,100000.84
2023-04-22T18:31:37.130Z,99995.72
2023-04-22T18:34:40.787Z,99992.97
2023-04-22T18:37:44.841Z,99991.13
2023-04-22T18:40:48.187Z,99994.78
2023-04-22T18:43:52.558Z,99999.72
2023-04-22T18:46:56.947Z,100004.66
2023-04-22T18:50:00.521Z,100005.47
2023-04-22T18:53:04.001Z,100009.50
2023-04-22T18:56:07.155Z,100006.72
2023-04-22T18:59:10.808Z,100005.66
2023-04-22T19:02:14.320Z,100010.47
2023-04-22T19:05:18.203Z,100014.44
2023-04-22T19:08:21.073Z,100009.69
2023-04-22T19:11:24.871Z,100003.34
2023-04-22T19:14:27.836Z,100010.16
2023-04-22T19:17:31.716Z,100014.16
2023-04-22T19:20:34.748Z,100012.22
2023-04-22T19:23:38.720Z,100005.81
2023-04-22T19:26:41.973Z,100010.63
2023-04-22T19:29:54.597Z,100018.16
2023-04-22T19:32:57.510Z,100020.59
2023-04-22T19:36:01.197Z,100017.03
2023-04-22T19:39:06.272Z,100013.84
2023-04-22T19:42:10.673Z,100018.25
2023-04-22T19:45:14.562Z,100010.31
2023-04-22T19:48:19.195Z,100015.50
2023-04-22T19:51:23.217Z,100022.28
2023-04-22T19:54:29.751Z,100014.75
2023-04-22T19:57:33.205Z,100011.56
2023-04-22T20:00:37.886Z,100011.97
2023-04-22T20:03:41.336Z,100012.38
2023-04-22T20:06:48.466Z,100020.72
2023-04-22T20:09:54.805Z,100014.75
2023-04-22T20:12:58.629Z,100018.34
2023-04-22T20:16:02.159Z,100015.16
2023-04-22T20:19:05.368Z,100017.13
2023-04-22T20:22:09.936Z,100025.50
2023-04-22T20:25:14.971Z,100014.75
2023-04-22T20:28:18.602Z,100022.72
2023-04-22T20:31:23.670Z,100020.31
2023-04-22T20:34:27.503Z,100021.09
2023-04-22T20:37:31.895Z,100017.53
2023-04-22T20:40:35.945Z,100014.31
2023-04-22T20:43:38.595Z,100021.06
2023-04-22T20:46:41.511Z,100016.69
2023-04-22T20:49:44.263Z,100017.06
2023-04-22T20:52:49.263Z,100011.09
2023-04-22T20:55:51.833Z,100004.31
2023-04-22T20:58:54.807Z,100017.41
2023-04-22T21:01:58.353Z,100014.63
2023-04-22T21:05:02.204Z,100013.84
2023-04-22T21:08:09.204Z,100014.22
2023-04-22T21:11:12.310Z,100014.59
2023-04-22T21:14:15.666Z,100012.56
2023-04-22T21:17:18.641Z,100009.78
2023-04-22T21:20:24.279Z,100013.78
2023-04-22T21:23:27.937Z,100017.75
2023-04-22T21:26:30.827Z,100022.50
2023-04-22T21:29:34.536Z,100024.88
2023-04-22T21:32:40.870Z,100021.28
2023-04-22T21:35:44.113Z,100028.03
2023-04-22T21:38:46.989Z,100022.84
2023-04-22T21:41:50.208Z,100026.03
2023-04-22T21:44:53.125Z,100018.12
2023-04-22T21:47:59.479Z,100026.09
2023-04-22T21:51:02.307Z,100026.09
2023-04-22T21:54:06.275Z,100028.81
2023-04-22T21:57:09.508Z,100033.22
2023-04-22T22:00:17.695Z,100026.84
2023-04-22T22:03:21.017Z,100033.97
2023-04-22T22:06:24.036Z,100030.37
2023-04-22T22:09:27.293Z,100032.41
2023-04-22T22:12:29.882Z,100031.56
2023-04-22T22:15:32.838Z,100042.69
2023-04-22T22:18:35.943Z,100043.91
2023-04-22T22:21:38.819Z,100039.91
2023-04-22T22:24:41.908Z,100038.69
2023-04-22T22:27:49.499Z,100038.25
2023-04-22T22:30:52.438Z,100038.25
2023-04-22T22:33:55.747Z,100038.25
2023-04-22T22:36:58.570Z,100044.16
2023-04-22T22:43:21.789Z,100038.59
2023-04-22T22:46:24.754Z,100043.75
2023-04-22T22:49:27.442Z,100040.97
2023-04-22T22:52:30.610Z,100042.56
2023-04-22T22:55:34.222Z,100040.16
2023-04-22T22:58:38.035Z,100044.13
2023-04-22T23:01:40.910Z,100038.13
2023-04-22T23:04:43.868Z,100048.44
2023-04-22T23:07:46.903Z,100044.44
2023-04-22T23:10:50.585Z,100050.37
2023-04-22T23:13:53.252Z,100045.16
2023-04-22T23:16:56.334Z,100038.00
2023-04-22T23:20:01.541Z,100043.56
2023-04-22T23:23:04.949Z,100042.31
2023-04-22T23:26:07.813Z,100049.03
2023-04-22T23:29:11.107Z,100045.91
2023-04-22T23:32:16.335Z,100041.91
2023-04-22T23:35:20.582Z,100035.56
2023-04-22T23:38:23.538Z,100033.91
2023-04-22T23:41:26.441Z,100038.25
2023-04-22T23:44:29.444Z,100031.91
2023-04-22T23:47:32.715Z,100031.84
2023-04-22T23:50:35.815Z,100035.75
2023-04-22T23:53:38.637Z,100034.56
2023-04-22T23:56:41.706Z,100026.50
2023-04-22T23:59:45.291Z,100019.72
